Helm, CA (93627)

7:16 PM PDT on March 28, 2017 (GMT -0700)
GFWS112 | | Change Station

Elev 197 ft 36.65 °N, 120.09 °W | Updated 9 minutes ago

Clear
Clear
63.1 °F
Feels Like 63.1 °F
N
0.0
Wind Variable Wind from NW
Gusts 0.0 mph

Today
High -- | Low -- °F
--% Chance of Precip.
Yesterday
High -- | Low -- °F
Precip. -- in
Pressure 30.15 in
Visibility 10.0 miles
Clouds Few 27000 ft
Dew Point 50 °F
Humidity 62%
Rainfall 0.00 in
Snow Depth Not available.
6:51 AM 7:19 PM
New Moon, 1% visible
METAR KNLC 290156Z 33009KT 10SM FEW270 17/04 A3015 RMK AO2 SLP210 RH/42 T01670044
Pressure 30.15 in
Visibility 10.0 miles
Clouds Few 27000 ft
Dew Point 50 °F
Humidity 62%
Rainfall 0.00 in
Snow Depth Not available.
6:51 AM 7:19 PM
New Moon, 1% visible
METAR KNLC 290156Z 33009KT 10SM FEW270 17/04 A3015 RMK AO2 SLP210 RH/42 T01670044

Get Severe Weather Alerts

Thanks for signing up!

Be on the lookout for a verification email in your inbox.

You'll start receiving the daily forecast at 8 AM.

×

10-Day Weather Forecast

Almanac

Astronomy

Mar. 28, 2017 Rise Set
Actual Time
Civil Twilight
Nautical Twilight
Astronomical Twilight
Moon
Length of Visible Light
Length of Day
Tomorrow will be .
, % of the Moon is Illuminated

Today's Extremes

State Highs State Lows

Community

WunderPhotos

Upload Photos

1,962,540 photos uploaded!

WunderBlog® & News

Nearby

Air Quality

  Air Quality AQ Index Pollutant
Not available.

Snow Depth

Station Depth Elevation

Earthquake Activity

City Distance Mag. Time & Date
Minimum magnitude displayed is 2.5.

Earthquake Activity

City Distance Mag. Time & Date
Minimum magnitude displayed is 2.5.

Coastal Water Temperatures

Place Temperature

Stations

Nearby Weather Stations

Station Location Temp. Windchill Dew Point Humidity Wind Precip. Elev Updated Type
                   

Watches & Warnings

There are currently no watches in effect.